sensor_id;sensor_type;location;lat;lon;timestamp;pressure;altitude;pressure_sealevel;temperature;humidity
64158;BME280;50449;51.528;5.076;2022-08-19T00:01:54;101238.28;;;26.01;45.97
64158;BME280;50449;51.528;5.076;2022-08-19T00:04:22;101240.59;;;25.99;46.21
64158;BME280;50449;51.528;5.076;2022-08-19T00:06:49;101233.75;;;25.97;45.96
64158;BME280;50449;51.528;5.076;2022-08-19T00:09:17;101236.03;;;25.95;46.36
64158;BME280;50449;51.528;5.076;2022-08-19T00:11:44;101237.53;;;25.92;45.92
64158;BME280;50449;51.528;5.076;2022-08-19T00:14:12;101234.28;;;25.90;46.20
64158;BME280;50449;51.528;5.076;2022-08-19T00:16:38;101233.81;;;25.88;46.00
64158;BME280;50449;51.528;5.076;2022-08-19T00:19:04;101238.03;;;25.85;45.61
64158;BME280;50449;51.528;5.076;2022-08-19T00:21:30;101239.50;;;25.83;45.74
64158;BME280;50449;51.528;5.076;2022-08-19T00:23:57;101237.88;;;25.82;46.12
64158;BME280;50449;51.528;5.076;2022-08-19T00:26:27;101240.97;;;25.80;46.28
64158;BME280;50449;51.528;5.076;2022-08-19T00:28:53;101237.75;;;25.78;46.16
64158;BME280;50449;51.528;5.076;2022-08-19T00:31:18;101239.56;;;25.74;45.94
64158;BME280;50449;51.528;5.076;2022-08-19T00:33:44;101242.66;;;25.73;45.87
64158;BME280;50449;51.528;5.076;2022-08-19T00:36:10;101238.25;;;25.72;46.04
64158;BME280;50449;51.528;5.076;2022-08-19T00:38:36;101233.06;;;25.70;46.07
64158;BME280;50449;51.528;5.076;2022-08-19T00:41:02;101233.72;;;25.67;46.52
64158;BME280;50449;51.528;5.076;2022-08-19T00:43:28;101242.38;;;25.65;46.36
64158;BME280;50449;51.528;5.076;2022-08-19T00:45:54;101246.28;;;25.64;46.08
64158;BME280;50449;51.528;5.076;2022-08-19T00:48:20;101242.22;;;25.62;46.14
64158;BME280;50449;51.528;5.076;2022-08-19T00:50:47;101244.50;;;25.60;46.08
64158;BME280;50449;51.528;5.076;2022-08-19T00:53:15;101244.84;;;25.58;46.46
64158;BME280;50449;51.528;5.076;2022-08-19T00:55:45;101238.03;;;25.56;46.20
64158;BME280;50449;51.528;5.076;2022-08-19T00:58:14;101234.78;;;25.54;46.45
64158;BME280;50449;51.528;5.076;2022-08-19T01:00:40;101241.44;;;25.53;45.94
64158;BME280;50449;51.528;5.076;2022-08-19T01:03:12;101242.91;;;25.50;46.18
64158;BME280;50449;51.528;5.076;2022-08-19T01:05:41;101240.50;;;25.48;45.97
64158;BME280;50449;51.528;5.076;2022-08-19T01:08:07;101245.53;;;25.46;46.40
64158;BME280;50449;51.528;5.076;2022-08-19T01:10:40;101236.75;;;25.44;46.27
64158;BME280;50449;51.528;5.076;2022-08-19T01:13:06;101244.56;;;25.42;46.31
64158;BME280;50449;51.528;5.076;2022-08-19T01:15:43;101244.44;;;25.39;46.42
64158;BME280;50449;51.528;5.076;2022-08-19T01:18:13;101241.97;;;25.37;46.32
64158;BME280;50449;51.528;5.076;2022-08-19T01:20:41;101243.13;;;25.36;46.37
64158;BME280;50449;51.528;5.076;2022-08-19T01:23:08;101235.50;;;25.33;46.20
64158;BME280;50449;51.528;5.076;2022-08-19T01:25:46;101246.09;;;25.31;46.09
64158;BME280;50449;51.528;5.076;2022-08-19T01:28:20;101243.63;;;25.30;46.41
64158;BME280;50449;51.528;5.076;2022-08-19T01:30:46;101238.47;;;25.28;46.17
64158;BME280;50449;51.528;5.076;2022-08-19T01:33:13;101240.72;;;25.26;46.37
64158;BME280;50449;51.528;5.076;2022-08-19T01:35:40;101239.13;;;25.25;46.41
64158;BME280;50449;51.528;5.076;2022-08-19T01:38:08;101244.97;;;25.23;46.17
64158;BME280;50449;51.528;5.076;2022-08-19T01:40:36;101232.63;;;25.21;46.50
64158;BME280;50449;51.528;5.076;2022-08-19T01:43:03;101238.81;;;25.18;46.02
64158;BME280;50449;51.528;5.076;2022-08-19T01:45:30;101232.44;;;25.17;46.60
64158;BME280;50449;51.528;5.076;2022-08-19T01:47:57;101238.63;;;25.14;46.16
64158;BME280;50449;51.528;5.076;2022-08-19T01:50:23;101244.50;;;25.13;46.24
64158;BME280;50449;51.528;5.076;2022-08-19T01:52:49;101253.09;;;25.11;46.15
64158;BME280;50449;51.528;5.076;2022-08-19T01:55:17;101247.88;;;25.10;46.59
64158;BME280;50449;51.528;5.076;2022-08-19T01:57:49;101246.59;;;25.07;46.36
64158;BME280;50449;51.528;5.076;2022-08-19T02:00:17;101246.13;;;25.05;46.32
64158;BME280;50449;51.528;5.076;2022-08-19T02:02:43;101251.19;;;25.03;46.05
64158;BME280;50449;51.528;5.076;2022-08-19T02:05:09;101254.25;;;25.01;46.36
64158;BME280;50449;51.528;5.076;2022-08-19T02:07:36;101252.97;;;24.99;46.10
64158;BME280;50449;51.528;5.076;2022-08-19T02:10:07;101258.00;;;24.97;46.34
64158;BME280;50449;51.528;5.076;2022-08-19T02:12:33;101261.09;;;24.95;46.33
64158;BME280;50449;51.528;5.076;2022-08-19T02:14:59;101265.34;;;24.93;46.34
64158;BME280;50449;51.528;5.076;2022-08-19T02:17:26;101265.66;;;24.91;45.94
64158;BME280;50449;51.528;5.076;2022-08-19T02:19:51;101269.56;;;24.90;46.30
64158;BME280;50449;51.528;5.076;2022-08-19T02:22:16;101272.66;;;24.89;46.19
64158;BME280;50449;51.528;5.076;2022-08-19T02:24:42;101267.78;;;24.86;46.16
64158;BME280;50449;51.528;5.076;2022-08-19T02:27:07;101264.53;;;24.83;46.48
64158;BME280;50449;51.528;5.076;2022-08-19T02:29:32;101258.50;;;24.81;46.38
64158;BME280;50449;51.528;5.076;2022-08-19T02:31:58;101257.69;;;24.81;46.11
64158;BME280;50449;51.528;5.076;2022-08-19T02:34:24;101257.22;;;24.79;46.07
64158;BME280;50449;51.528;5.076;2022-08-19T02:36:50;101258.69;;;24.76;46.49
64158;BME280;50449;51.528;5.076;2022-08-19T02:39:16;101257.38;;;24.74;46.16
64158;BME280;50449;51.528;5.076;2022-08-19T02:41:42;101264.06;;;24.73;46.64
64158;BME280;50449;51.528;5.076;2022-08-19T02:44:07;101259.66;;;24.72;46.12
64158;BME280;50449;51.528;5.076;2022-08-19T02:46:33;101260.31;;;24.69;46.47
64158;BME280;50449;51.528;5.076;2022-08-19T02:49:02;101261.47;;;24.68;46.43
64158;BME280;50449;51.528;5.076;2022-08-19T02:51:34;101264.53;;;24.66;46.57
64158;BME280;50449;51.528;5.076;2022-08-19T02:53:59;101263.25;;;24.64;46.58
64158;BME280;50449;51.528;5.076;2022-08-19T02:56:26;101257.22;;;24.61;46.16
64158;BME280;50449;51.528;5.076;2022-08-19T02:58:53;101272.19;;;24.60;46.71
64158;BME280;50449;51.528;5.076;2022-08-19T03:01:23;101259.03;;;24.57;46.36
64158;BME280;50449;51.528;5.076;2022-08-19T03:03:49;101252.69;;;24.57;46.70
64158;BME280;50449;51.528;5.076;2022-08-19T03:06:16;101243.91;;;24.55;46.88
64158;BME280;50449;51.528;5.076;2022-08-19T03:08:44;101255.28;;;24.53;46.54
64158;BME280;50449;51.528;5.076;2022-08-19T03:11:21;101256.44;;;24.52;46.40
64158;BME280;50449;51.528;5.076;2022-08-19T03:13:48;101249.59;;;24.50;46.25
64158;BME280;50449;51.528;5.076;2022-08-19T03:16:22;101243.59;;;24.48;46.71
64158;BME280;50449;51.528;5.076;2022-08-19T03:18:48;101247.47;;;24.47;46.46
64158;BME280;50449;51.528;5.076;2022-08-19T03:21:18;101257.19;;;24.44;46.75
64158;BME280;50449;51.528;5.076;2022-08-19T03:23:44;101263.06;;;24.43;46.86
64158;BME280;50449;51.528;5.076;2022-08-19T03:26:10;101268.06;;;24.40;46.48
64158;BME280;50449;51.528;5.076;2022-08-19T03:28:36;101260.94;;;24.39;46.72
64158;BME280;50449;51.528;5.076;2022-08-19T03:31:08;101257.34;;;24.39;46.58
64158;BME280;50449;51.528;5.076;2022-08-19T03:33:35;101255.25;;;24.36;46.97
64158;BME280;50449;51.528;5.076;2022-08-19T03:38:29;101255.09;;;24.32;46.84
64158;BME280;50449;51.528;5.076;2022-08-19T03:40:54;101257.34;;;24.30;46.65
64158;BME280;50449;51.528;5.076;2022-08-19T03:43:20;101259.31;;;24.30;46.85
64158;BME280;50449;51.528;5.076;2022-08-19T03:45:46;101256.84;;;24.28;46.52
64158;BME280;50449;51.528;5.076;2022-08-19T03:48:14;101256.38;;;24.26;46.75
64158;BME280;50449;51.528;5.076;2022-08-19T03:50:42;101247.63;;;24.24;46.94
64158;BME280;50449;51.528;5.076;2022-08-19T03:53:07;101247.94;;;24.23;46.74
64158;BME280;50449;51.528;5.076;2022-08-19T03:55:38;101240.75;;;24.22;46.41
64158;BME280;50449;51.528;5.076;2022-08-19T03:58:03;101240.28;;;24.19;46.58
64158;BME280;50449;51.528;5.076;2022-08-19T04:00:29;101246.13;;;24.18;46.77
64158;BME280;50449;51.528;5.076;2022-08-19T04:02:54;101238.16;;;24.16;46.66
64158;BME280;50449;51.528;5.076;2022-08-19T04:05:19;101243.22;;;24.14;47.06
64158;BME280;50449;51.528;5.076;2022-08-19T04:07:45;101245.47;;;24.12;47.17
64158;BME280;50449;51.528;5.076;2022-08-19T04:10:11;101243.03;;;24.11;46.78
64158;BME280;50449;51.528;5.076;2022-08-19T04:12:36;101247.25;;;24.08;46.68
64158;BME280;50449;51.528;5.076;2022-08-19T04:15:02;101247.59;;;24.07;46.89
64158;BME280;50449;51.528;5.076;2022-08-19T04:17:28;101247.91;;;24.05;47.10
64158;BME280;50449;51.528;5.076;2022-08-19T04:19:53;101240.75;;;24.04;46.54
64158;BME280;50449;51.528;5.076;2022-08-19T04:22:18;101240.28;;;24.02;46.88
64158;BME280;50449;51.528;5.076;2022-08-19T04:24:44;101241.72;;;24.00;46.53
64158;BME280;50449;51.528;5.076;2022-08-19T04:27:09;101242.03;;;23.98;47.05
64158;BME280;50449;51.528;5.076;2022-08-19T04:29:34;101243.19;;;23.97;46.50
64158;BME280;50449;51.528;5.076;2022-08-19T04:32:01;101240.72;;;23.95;46.78
64158;BME280;50449;51.528;5.076;2022-08-19T04:34:28;101238.31;;;23.94;46.80
64158;BME280;50449;51.528;5.076;2022-08-19T04:36:56;101233.41;;;23.91;47.00
64158;BME280;50449;51.528;5.076;2022-08-19T04:39:25;101240.88;;;23.90;47.13
64158;BME280;50449;51.528;5.076;2022-08-19T04:42:11;101237.63;;;23.88;47.08
64158;BME280;50449;51.528;5.076;2022-08-19T04:44:56;101233.56;;;23.86;46.86
64158;BME280;50449;51.528;5.076;2022-08-19T04:47:21;101246.06;;;23.83;46.73
64158;BME280;50449;51.528;5.076;2022-08-19T04:49:47;101249.94;;;23.82;46.75
64158;BME280;50449;51.528;5.076;2022-08-19T04:52:13;101248.66;;;23.80;46.79
64158;BME280;50449;51.528;5.076;2022-08-19T04:54:39;101249.75;;;23.79;46.79
64158;BME280;50449;51.528;5.076;2022-08-19T04:57:08;101255.63;;;23.77;47.16
64158;BME280;50449;51.528;5.076;2022-08-19T04:59:35;101258.69;;;23.75;46.95
64158;BME280;50449;51.528;5.076;2022-08-19T05:02:02;101255.44;;;23.73;46.85
64158;BME280;50449;51.528;5.076;2022-08-19T05:04:27;101262.09;;;23.72;47.35
64158;BME280;50449;51.528;5.076;2022-08-19T05:06:56;101267.88;;;23.71;47.38
64158;BME280;50449;51.528;5.076;2022-08-19T05:09:22;101270.16;;;23.69;47.03
64158;BME280;50449;51.528;5.076;2022-08-19T05:11:48;101267.72;;;23.67;46.96
64158;BME280;50449;51.528;5.076;2022-08-19T05:14:16;101271.63;;;23.66;47.29
64158;BME280;50449;51.528;5.076;2022-08-19T05:16:41;101276.63;;;23.64;47.40
64158;BME280;50449;51.528;5.076;2022-08-19T05:19:07;101274.53;;;23.61;47.29
64158;BME280;50449;51.528;5.076;2022-08-19T05:21:51;101280.03;;;23.61;47.13
64158;BME280;50449;51.528;5.076;2022-08-19T05:24:36;101287.00;;;23.59;47.03
64158;BME280;50449;51.528;5.076;2022-08-19T05:27:01;101288.09;;;23.58;47.34
64158;BME280;50449;51.528;5.076;2022-08-19T05:29:28;101284.03;;;23.55;47.07
64158;BME280;50449;51.528;5.076;2022-08-19T05:31:55;101281.28;;;23.55;46.93
64158;BME280;50449;51.528;5.076;2022-08-19T05:34:23;101283.53;;;23.53;47.12
64158;BME280;50449;51.528;5.076;2022-08-19T05:36:55;101276.72;;;23.50;47.13
64158;BME280;50449;51.528;5.076;2022-08-19T05:39:24;101285.31;;;23.49;47.21
64158;BME280;50449;51.528;5.076;2022-08-19T05:41:53;101280.94;;;23.48;47.59
64158;BME280;50449;51.528;5.076;2022-08-19T05:44:20;101275.75;;;23.46;47.27
64158;BME280;50449;51.528;5.076;2022-08-19T05:46:47;101282.38;;;23.45;47.40
64158;BME280;50449;51.528;5.076;2022-08-19T05:49:14;101274.44;;;23.44;47.50
64158;BME280;50449;51.528;5.076;2022-08-19T05:51:41;101271.97;;;23.42;47.62
64158;BME280;50449;51.528;5.076;2022-08-19T05:54:06;101278.63;;;23.41;47.24
64158;BME280;50449;51.528;5.076;2022-08-19T05:56:34;101273.44;;;23.40;47.56
64158;BME280;50449;51.528;5.076;2022-08-19T05:59:04;101270.16;;;23.38;47.68
64158;BME280;50449;51.528;5.076;2022-08-19T06:01:33;101274.88;;;23.37;47.40
64158;BME280;50449;51.528;5.076;2022-08-19T06:03:58;101286.22;;;23.36;47.60
64158;BME280;50449;51.528;5.076;2022-08-19T06:06:24;101290.09;;;23.35;47.86
64158;BME280;50449;51.528;5.076;2022-08-19T06:08:50;101292.06;;;23.34;47.76
64158;BME280;50449;51.528;5.076;2022-08-19T06:11:20;101295.91;;;23.33;48.18
64158;BME280;50449;51.528;5.076;2022-08-19T06:13:49;101293.50;;;23.31;47.92
64158;BME280;50449;51.528;5.076;2022-08-19T06:16:17;101290.25;;;23.29;48.20
64158;BME280;50449;51.528;5.076;2022-08-19T06:18:46;101283.13;;;23.28;48.34
64158;BME280;50449;51.528;5.076;2022-08-19T06:21:11;101285.88;;;23.28;48.18
64158;BME280;50449;51.528;5.076;2022-08-19T06:23:36;101278.72;;;23.27;48.31
64158;BME280;50449;51.528;5.076;2022-08-19T06:26:02;101279.03;;;23.26;47.96
64158;BME280;50449;51.528;5.076;2022-08-19T06:28:27;101283.72;;;23.25;48.04
64158;BME280;50449;51.528;5.076;2022-08-19T06:30:53;101280.97;;;23.25;48.22
64158;BME280;50449;51.528;5.076;2022-08-19T06:33:18;101297.00;;;23.23;48.64
64158;BME280;50449;51.528;5.076;2022-08-19T06:35:43;101288.72;;;23.23;48.58
64158;BME280;50449;51.528;5.076;2022-08-19T06:38:09;101285.16;;;23.23;48.61
64158;BME280;50449;51.528;5.076;2022-08-19T06:40:35;101289.06;;;23.22;48.63
64158;BME280;50449;51.528;5.076;2022-08-19T06:43:02;101281.59;;;23.22;48.85
64158;BME280;50449;51.528;5.076;2022-08-19T06:45:27;101282.75;;;23.21;48.38
64158;BME280;50449;51.528;5.076;2022-08-19T06:47:53;101291.81;;;23.22;48.26
64158;BME280;50449;51.528;5.076;2022-08-19T06:50:22;101289.06;;;23.22;48.60
64158;BME280;50449;51.528;5.076;2022-08-19T06:52:48;101292.94;;;23.21;48.40
64158;BME280;50449;51.528;5.076;2022-08-19T06:55:14;101297.63;;;23.20;48.85
64158;BME280;50449;51.528;5.076;2022-08-19T06:57:41;101291.31;;;23.20;48.53
64158;BME280;50449;51.528;5.076;2022-08-19T07:00:08;101292.94;;;23.21;48.89
64158;BME280;50449;51.528;5.076;2022-08-19T07:02:36;101294.06;;;23.20;48.65
64158;BME280;50449;51.528;5.076;2022-08-19T07:05:03;101304.78;;;23.21;48.85
64158;BME280;50449;51.528;5.076;2022-08-19T07:07:28;101299.28;;;23.21;49.17
64158;BME280;50449;51.528;5.076;2022-08-19T07:09:54;101303.94;;;23.21;49.11
64158;BME280;50449;51.528;5.076;2022-08-19T07:12:19;101300.09;;;23.22;49.08
64158;BME280;50449;51.528;5.076;2022-08-19T07:14:44;101309.16;;;23.22;48.95
64158;BME280;50449;51.528;5.076;2022-08-19T07:17:14;101305.59;;;23.22;49.25
64158;BME280;50449;51.528;5.076;2022-08-19T07:19:40;101305.59;;;23.22;49.32
64158;BME280;50449;51.528;5.076;2022-08-19T07:22:07;101303.66;;;23.22;49.32
64158;BME280;50449;51.528;5.076;2022-08-19T07:24:33;101308.03;;;23.23;49.44
64158;BME280;50449;51.528;5.076;2022-08-19T07:27:00;101307.22;;;23.23;49.72
64158;BME280;50449;51.528;5.076;2022-08-19T07:29:27;101307.22;;;23.23;49.21
64158;BME280;50449;51.528;5.076;2022-08-19T07:31:54;101308.84;;;23.24;49.63
64158;BME280;50449;51.528;5.076;2022-08-19T07:34:22;101308.03;;;23.23;49.16
64158;BME280;50449;51.528;5.076;2022-08-19T07:36:49;101310.78;;;23.23;49.69
64158;BME280;50449;51.528;5.076;2022-08-19T07:39:18;101306.91;;;23.24;49.85
64158;BME280;50449;51.528;5.076;2022-08-19T07:41:44;101309.66;;;23.24;50.04
64158;BME280;50449;51.528;5.076;2022-08-19T07:44:12;101304.16;;;23.24;49.90
64158;BME280;50449;51.528;5.076;2022-08-19T07:46:48;101306.91;;;23.24;50.03
64158;BME280;50449;51.528;5.076;2022-08-19T07:49:14;101308.84;;;23.24;49.85
64158;BME280;50449;51.528;5.076;2022-08-19T07:51:53;101308.53;;;23.25;49.79
64158;BME280;50449;51.528;5.076;2022-08-19T07:54:20;101315.19;;;23.24;49.47
64158;BME280;50449;51.528;5.076;2022-08-19T07:56:46;101323.44;;;23.24;49.88
64158;BME280;50449;51.528;5.076;2022-08-19T07:59:12;101334.47;;;23.24;50.11
64158;BME280;50449;51.528;5.076;2022-08-19T08:01:38;101326.19;;;23.24;49.80
64158;BME280;50449;51.528;5.076;2022-08-19T08:04:05;101319.56;;;23.25;49.90
64158;BME280;50449;51.528;5.076;2022-08-19T08:06:50;101328.31;;;23.27;50.53
64158;BME280;50449;51.528;5.076;2022-08-19T08:09:37;101323.63;;;23.28;51.60
64158;BME280;50449;51.528;5.076;2022-08-19T08:12:07;101331.88;;;23.28;51.80
64158;BME280;50449;51.528;5.076;2022-08-19T08:14:44;101334.66;;;23.28;52.17
64158;BME280;50449;51.528;5.076;2022-08-19T08:17:12;101335.78;;;23.27;51.94
64158;BME280;50449;51.528;5.076;2022-08-19T08:19:37;101341.28;;;23.27;52.51
64158;BME280;50449;51.528;5.076;2022-08-19T08:22:07;101342.44;;;23.26;52.71
64158;BME280;50449;51.528;5.076;2022-08-19T08:24:33;101341.59;;;23.25;52.89
64158;BME280;50449;51.528;5.076;2022-08-19T08:27:01;101348.25;;;23.24;52.75
64158;BME280;50449;51.528;5.076;2022-08-19T08:29:30;101348.25;;;23.24;53.14
64158;BME280;50449;51.528;5.076;2022-08-19T08:31:56;101349.88;;;23.25;53.41
64158;BME280;50449;51.528;5.076;2022-08-19T08:34:21;101350.72;;;23.26;53.22
64158;BME280;50449;51.528;5.076;2022-08-19T08:36:47;101352.31;;;23.27;53.22
64158;BME280;50449;51.528;5.076;2022-08-19T08:39:15;101354.78;;;23.28;53.00
64158;BME280;50449;51.528;5.076;2022-08-19T08:42:06;101354.78;;;23.28;53.07
64158;BME280;50449;51.528;5.076;2022-08-19T08:47:02;101359.97;;;23.30;52.72
64158;BME280;50449;51.528;5.076;2022-08-19T08:49:33;101361.09;;;23.29;52.74
64158;BME280;50449;51.528;5.076;2022-08-19T08:52:12;101360.75;;;23.30;52.82
64158;BME280;50449;51.528;5.076;2022-08-19T08:54:44;101366.78;;;23.32;52.46
64158;BME280;50449;51.528;5.076;2022-08-19T08:57:15;101366.78;;;23.32;52.45
64158;BME280;50449;51.528;5.076;2022-08-19T08:59:43;101371.19;;;23.33;52.37
64158;BME280;50449;51.528;5.076;2022-08-19T09:02:11;101365.69;;;23.33;52.33
64158;BME280;50449;51.528;5.076;2022-08-19T09:04:37;101372.81;;;23.35;52.77
64158;BME280;50449;51.528;5.076;2022-08-19T09:12:59;101365.84;;;23.37;52.61
64158;BME280;50449;51.528;5.076;2022-08-19T09:15:32;101364.72;;;23.38;52.76
64158;BME280;50449;51.528;5.076;2022-08-19T09:18:01;101371.06;;;23.39;52.67
64158;BME280;50449;51.528;5.076;2022-08-19T09:20:27;101375.44;;;23.40;52.46
64158;BME280;50449;51.528;5.076;2022-08-19T09:22:53;101374.28;;;23.41;52.50
64158;BME280;50449;51.528;5.076;2022-08-19T09:25:20;101372.38;;;23.41;52.81
64158;BME280;50449;51.528;5.076;2022-08-19T09:27:50;101378.69;;;23.42;52.60
64158;BME280;50449;51.528;5.076;2022-08-19T09:30:20;101376.75;;;23.42;52.64
64158;BME280;50449;51.528;5.076;2022-08-19T09:32:47;101377.56;;;23.43;52.70
64158;BME280;50449;51.528;5.076;2022-08-19T09:35:14;101375.59;;;23.43;52.77
64158;BME280;50449;51.528;5.076;2022-08-19T09:37:41;101380.00;;;23.44;52.53
64158;BME280;50449;51.528;5.076;2022-08-19T09:40:08;101380.81;;;23.45;52.67
64158;BME280;50449;51.528;5.076;2022-08-19T09:42:33;101381.63;;;23.45;52.24
64158;BME280;50449;51.528;5.076;2022-08-19T09:44:59;101382.13;;;23.47;52.81
64158;BME280;50449;51.528;5.076;2022-08-19T09:47:24;101380.19;;;23.48;52.64
64158;BME280;50449;51.528;5.076;2022-08-19T09:49:50;101382.13;;;23.47;52.35
64158;BME280;50449;51.528;5.076;2022-08-19T09:52:15;101376.31;;;23.49;52.38
64158;BME280;50449;51.528;5.076;2022-08-19T09:54:41;101385.41;;;23.49;52.53
64158;BME280;50449;51.528;5.076;2022-08-19T09:57:06;101377.13;;;23.49;52.38
64158;BME280;50449;51.528;5.076;2022-08-19T09:59:32;101382.31;;;23.51;52.50
64158;BME280;50449;51.528;5.076;2022-08-19T10:01:57;101385.06;;;23.51;52.14
64158;BME280;50449;51.528;5.076;2022-08-19T10:04:23;101382.31;;;23.51;52.43
64158;BME280;50449;51.528;5.076;2022-08-19T10:07:08;101386.72;;;23.52;52.40
64158;BME280;50449;51.528;5.076;2022-08-19T10:09:33;101383.63;;;23.53;52.72
64158;BME280;50449;51.528;5.076;2022-08-19T10:11:59;101386.38;;;23.53;52.19
64158;BME280;50449;51.528;5.076;2022-08-19T10:14:26;101391.59;;;23.55;52.18
64158;BME280;50449;51.528;5.076;2022-08-19T10:16:52;101386.88;;;23.55;52.68
64158;BME280;50449;51.528;5.076;2022-08-19T10:19:17;101392.09;;;23.57;52.39
64158;BME280;50449;51.528;5.076;2022-08-19T10:21:45;101384.63;;;23.58;52.49
64158;BME280;50449;51.528;5.076;2022-08-19T10:24:10;101379.13;;;23.58;52.37
64158;BME280;50449;51.528;5.076;2022-08-19T10:26:38;101385.13;;;23.60;52.73
64158;BME280;50449;51.528;5.076;2022-08-19T10:29:06;101372.97;;;23.61;52.60
64158;BME280;50449;51.528;5.076;2022-08-19T10:31:33;101369.41;;;23.60;52.21
64158;BME280;50449;51.528;5.076;2022-08-19T10:33:59;101376.56;;;23.61;52.49
64158;BME280;50449;51.528;5.076;2022-08-19T10:36:28;101372.66;;;23.62;52.80
64158;BME280;50449;51.528;5.076;2022-08-19T10:38:55;101371.50;;;23.63;52.85
64158;BME280;50449;51.528;5.076;2022-08-19T10:41:26;101369.59;;;23.64;52.63
64158;BME280;50449;51.528;5.076;2022-08-19T10:43:57;101372.03;;;23.65;52.64
64158;BME280;50449;51.528;5.076;2022-08-19T10:46:25;101375.59;;;23.66;52.37
64158;BME280;50449;51.528;5.076;2022-08-19T10:48:51;101372.53;;;23.67;52.68
64158;BME280;50449;51.528;5.076;2022-08-19T10:51:17;101363.94;;;23.69;52.69
64158;BME280;50449;51.528;5.076;2022-08-19T10:54:01;101371.88;;;23.70;52.70
64158;BME280;50449;51.528;5.076;2022-08-19T10:56:28;101364.41;;;23.71;52.56
64158;BME280;50449;51.528;5.076;2022-08-19T10:59:12;101364.16;;;23.72;52.38
64158;BME280;50449;51.528;5.076;2022-08-19T11:01:40;101363.00;;;23.73;52.27
64158;BME280;50449;51.528;5.076;2022-08-19T11:04:05;101367.41;;;23.74;51.69
64158;BME280;50449;51.528;5.076;2022-08-19T11:06:35;101357.34;;;23.79;52.14
64158;BME280;50449;51.528;5.076;2022-08-19T11:09:02;101357.03;;;23.80;52.27
64158;BME280;50449;51.528;5.076;2022-08-19T11:11:28;101359.97;;;23.84;52.45
64158;BME280;50449;51.528;5.076;2022-08-19T11:13:53;101349.44;;;23.86;52.68
64158;BME280;50449;51.528;5.076;2022-08-19T11:16:23;101351.53;;;23.89;53.23
64158;BME280;50449;51.528;5.076;2022-08-19T11:18:53;101360.31;;;23.91;52.73
64158;BME280;50449;51.528;5.076;2022-08-19T11:21:28;101347.03;;;23.93;52.64
64158;BME280;50449;51.528;5.076;2022-08-19T11:23:57;101346.38;;;23.96;52.21
64158;BME280;50449;51.528;5.076;2022-08-19T11:26:23;101351.59;;;23.97;52.34
64158;BME280;50449;51.528;5.076;2022-08-19T11:28:49;101344.63;;;24.00;52.37
64158;BME280;50449;51.528;5.076;2022-08-19T11:31:23;101349.50;;;24.03;52.84
64158;BME280;50449;51.528;5.076;2022-08-19T11:33:49;101348.84;;;24.06;52.35
64158;BME280;50449;51.528;5.076;2022-08-19T11:36:18;101353.75;;;24.09;52.74
64158;BME280;50449;51.528;5.076;2022-08-19T11:38:46;101347.09;;;24.10;52.44
64158;BME280;50449;51.528;5.076;2022-08-19T11:41:14;101342.56;;;24.14;52.36
64158;BME280;50449;51.528;5.076;2022-08-19T11:43:40;101344.69;;;24.17;52.42
64158;BME280;50449;51.528;5.076;2022-08-19T11:46:06;101337.38;;;24.22;52.58
64158;BME280;50449;51.528;5.076;2022-08-19T11:48:33;101339.81;;;24.23;52.15
64158;BME280;50449;51.528;5.076;2022-08-19T11:50:59;101338.88;;;24.28;52.04
64158;BME280;50449;51.528;5.076;2022-08-19T11:53:24;101340.97;;;24.31;52.19
64158;BME280;50449;51.528;5.076;2022-08-19T11:55:53;101343.94;;;24.34;51.97
64158;BME280;50449;51.528;5.076;2022-08-19T11:58:21;101347.66;;;24.38;52.07
64158;BME280;50449;51.528;5.076;2022-08-19T12:00:47;101347.00;;;24.41;51.74
64158;BME280;50449;51.528;5.076;2022-08-19T12:03:13;101348.84;;;24.46;52.09
64158;BME280;50449;51.528;5.076;2022-08-19T12:05:39;101349.34;;;24.48;52.23
64158;BME280;50449;51.528;5.076;2022-08-19T12:08:05;101346.72;;;24.52;52.08
64158;BME280;50449;51.528;5.076;2022-08-19T12:10:31;101352.44;;;24.55;52.41
64158;BME280;50449;51.528;5.076;2022-08-19T12:12:57;101345.47;;;24.58;51.89
64158;BME280;50449;51.528;5.076;2022-08-19T12:15:22;101349.22;;;24.62;52.56
64158;BME280;50449;51.528;5.076;2022-08-19T12:17:48;101352.63;;;24.68;52.37
64158;BME280;50449;51.528;5.076;2022-08-19T12:20:15;101357.81;;;24.69;51.76
64158;BME280;50449;51.528;5.076;2022-08-19T12:22:42;101349.69;;;24.73;52.14
64158;BME280;50449;51.528;5.076;2022-08-19T12:25:10;101347.09;;;24.76;52.00
64158;BME280;50449;51.528;5.076;2022-08-19T12:27:36;101352.44;;;24.81;51.90
64158;BME280;50449;51.528;5.076;2022-08-19T12:30:03;101352.94;;;24.83;51.96
64158;BME280;50449;51.528;5.076;2022-08-19T12:32:29;101350.81;;;24.89;52.27
64158;BME280;50449;51.528;5.076;2022-08-19T12:34:54;101351.00;;;24.93;52.24
64158;BME280;50449;51.528;5.076;2022-08-19T12:37:20;101350.34;;;24.96;51.92
64158;BME280;50449;51.528;5.076;2022-08-19T12:39:46;101348.56;;;25.00;52.08
64158;BME280;50449;51.528;5.076;2022-08-19T12:42:12;101344.34;;;25.02;52.09
64158;BME280;50449;51.528;5.076;2022-08-19T12:44:39;101347.25;;;25.06;51.94
64158;BME280;50449;51.528;5.076;2022-08-19T12:47:06;101339.94;;;25.10;52.44
64158;BME280;50449;51.528;5.076;2022-08-19T12:49:32;101343.66;;;25.14;52.09
64158;BME280;50449;51.528;5.076;2022-08-19T12:52:00;101339.47;;;25.17;52.21
64158;BME280;50449;51.528;5.076;2022-08-19T12:54:26;101335.22;;;25.19;52.40
64158;BME280;50449;51.528;5.076;2022-08-19T12:56:51;101337.38;;;25.22;52.22
64158;BME280;50449;51.528;5.076;2022-08-19T12:59:17;101342.22;;;25.25;52.04
64158;BME280;50449;51.528;5.076;2022-08-19T13:01:44;101339.97;;;25.28;52.25
64158;BME280;50449;51.528;5.076;2022-08-19T13:04:10;101337.66;;;25.30;52.03